sensor_id;sensor_type;location;lat;lon;timestamp;P1;durP1;ratioP1;P2;durP2;ratioP2
34892;SDS011;21106;52.240;20.902;2022-07-30T00:04:44;3.95;;;1.02;;
34892;SDS011;21106;52.240;20.902;2022-07-30T00:09:50;3.83;;;1.00;;
34892;SDS011;21106;52.240;20.902;2022-07-30T00:14:55;1.82;;;0.90;;
34892;SDS011;21106;52.240;20.902;2022-07-30T00:20:01;2.37;;;1.07;;
34892;SDS011;21106;52.240;20.902;2022-07-30T00:25:07;2.27;;;0.93;;
34892;SDS011;21106;52.240;20.902;2022-07-30T00:30:13;5.62;;;0.80;;
34892;SDS011;21106;52.240;20.902;2022-07-30T00:35:18;2.70;;;0.80;;
34892;SDS011;21106;52.240;20.902;2022-07-30T00:40:24;5.80;;;0.85;;
34892;SDS011;21106;52.240;20.902;2022-07-30T00:45:30;4.35;;;0.95;;
34892;SDS011;21106;52.240;20.902;2022-07-30T00:50:35;3.80;;;1.00;;
34892;SDS011;21106;52.240;20.902;2022-07-30T00:55:41;2.35;;;1.00;;
34892;SDS011;21106;52.240;20.902;2022-07-30T01:00:46;12.30;;;1.15;;
34892;SDS011;21106;52.240;20.902;2022-07-30T01:05:52;3.12;;;1.02;;
34892;SDS011;21106;52.240;20.902;2022-07-30T01:10:58;7.00;;;1.27;;
34892;SDS011;21106;52.240;20.902;2022-07-30T01:16:03;7.05;;;0.90;;
34892;SDS011;21106;52.240;20.902;2022-07-30T01:21:09;4.83;;;1.40;;
34892;SDS011;21106;52.240;20.902;2022-07-30T01:26:17;2.35;;;0.93;;
34892;SDS011;21106;52.240;20.902;2022-07-30T01:31:23;2.92;;;1.10;;
34892;SDS011;21106;52.240;20.902;2022-07-30T01:36:30;5.22;;;1.82;;
34892;SDS011;21106;52.240;20.902;2022-07-30T01:41:37;3.05;;;0.90;;
34892;SDS011;21106;52.240;20.902;2022-07-30T01:46:43;2.45;;;0.85;;
34892;SDS011;21106;52.240;20.902;2022-07-30T01:51:50;2.70;;;1.00;;
34892;SDS011;21106;52.240;20.902;2022-07-30T01:56:57;5.15;;;1.00;;
34892;SDS011;21106;52.240;20.902;2022-07-30T02:02:04;3.50;;;0.90;;
34892;SDS011;21106;52.240;20.902;2022-07-30T02:07:19;4.05;;;1.20;;
34892;SDS011;21106;52.240;20.902;2022-07-30T02:12:25;3.58;;;0.93;;
34892;SDS011;21106;52.240;20.902;2022-07-30T02:17:36;3.52;;;1.00;;
34892;SDS011;21106;52.240;20.902;2022-07-30T02:22:42;1.37;;;0.65;;
34892;SDS011;21106;52.240;20.902;2022-07-30T02:27:53;7.55;;;1.30;;
34892;SDS011;21106;52.240;20.902;2022-07-30T02:33:07;2.10;;;1.00;;
34892;SDS011;21106;52.240;20.902;2022-07-30T02:38:10;7.10;;;0.90;;
34892;SDS011;21106;52.240;20.902;2022-07-30T02:43:17;4.62;;;1.05;;
34892;SDS011;21106;52.240;20.902;2022-07-30T02:48:25;2.22;;;1.07;;
34892;SDS011;21106;52.240;20.902;2022-07-30T02:53:33;2.65;;;0.82;;
34892;SDS011;21106;52.240;20.902;2022-07-30T02:58:39;4.72;;;1.00;;
34892;SDS011;21106;52.240;20.902;2022-07-30T03:03:45;4.37;;;1.00;;
34892;SDS011;21106;52.240;20.902;2022-07-30T03:08:51;2.98;;;0.78;;
34892;SDS011;21106;52.240;20.902;2022-07-30T03:13:57;4.97;;;1.00;;
34892;SDS011;21106;52.240;20.902;2022-07-30T03:19:05;1.57;;;0.95;;
34892;SDS011;21106;52.240;20.902;2022-07-30T03:24:10;3.60;;;0.95;;
34892;SDS011;21106;52.240;20.902;2022-07-30T03:29:17;2.65;;;0.90;;
34892;SDS011;21106;52.240;20.902;2022-07-30T03:34:23;5.30;;;0.82;;
34892;SDS011;21106;52.240;20.902;2022-07-30T03:39:31;8.30;;;1.05;;
34892;SDS011;21106;52.240;20.902;2022-07-30T03:44:37;2.55;;;1.20;;
34892;SDS011;21106;52.240;20.902;2022-07-30T03:49:43;5.95;;;1.45;;
34892;SDS011;21106;52.240;20.902;2022-07-30T03:54:49;2.47;;;1.20;;
34892;SDS011;21106;52.240;20.902;2022-07-30T03:59:57;3.75;;;0.95;;
34892;SDS011;21106;52.240;20.902;2022-07-30T04:05:02;2.72;;;1.10;;
34892;SDS011;21106;52.240;20.902;2022-07-30T04:10:08;2.67;;;0.90;;
34892;SDS011;21106;52.240;20.902;2022-07-30T04:15:16;3.20;;;1.00;;
34892;SDS011;21106;52.240;20.902;2022-07-30T04:20:26;4.00;;;1.25;;
34892;SDS011;21106;52.240;20.902;2022-07-30T04:25:32;2.85;;;0.90;;
34892;SDS011;21106;52.240;20.902;2022-07-30T04:30:38;6.60;;;1.30;;
34892;SDS011;21106;52.240;20.902;2022-07-30T04:35:44;1.55;;;0.98;;
34892;SDS011;21106;52.240;20.902;2022-07-30T04:40:58;2.30;;;0.95;;
34892;SDS011;21106;52.240;20.902;2022-07-30T04:46:05;4.55;;;1.50;;
34892;SDS011;21106;52.240;20.902;2022-07-30T04:51:16;3.25;;;1.15;;
34892;SDS011;21106;52.240;20.902;2022-07-30T04:56:21;2.80;;;1.10;;
34892;SDS011;21106;52.240;20.902;2022-07-30T05:01:30;4.55;;;1.00;;
34892;SDS011;21106;52.240;20.902;2022-07-30T05:06:35;3.80;;;1.10;;
34892;SDS011;21106;52.240;20.902;2022-07-30T05:11:41;10.00;;;1.30;;
34892;SDS011;21106;52.240;20.902;2022-07-30T05:16:50;6.15;;;1.00;;
34892;SDS011;21106;52.240;20.902;2022-07-30T05:21:55;4.90;;;1.00;;
34892;SDS011;21106;52.240;20.902;2022-07-30T05:27:02;5.95;;;1.10;;
34892;SDS011;21106;52.240;20.902;2022-07-30T05:32:07;1.87;;;1.35;;
34892;SDS011;21106;52.240;20.902;2022-07-30T05:37:13;4.03;;;1.15;;
34892;SDS011;21106;52.240;20.902;2022-07-30T05:42:19;2.60;;;1.10;;
34892;SDS011;21106;52.240;20.902;2022-07-30T05:47:26;3.40;;;1.15;;
34892;SDS011;21106;52.240;20.902;2022-07-30T05:52:32;2.20;;;1.15;;
34892;SDS011;21106;52.240;20.902;2022-07-30T05:57:39;3.37;;;1.35;;
34892;SDS011;21106;52.240;20.902;2022-07-30T06:02:46;7.25;;;1.07;;
34892;SDS011;21106;52.240;20.902;2022-07-30T06:08:06;2.80;;;1.15;;
34892;SDS011;21106;52.240;20.902;2022-07-30T06:13:11;4.70;;;1.45;;
34892;SDS011;21106;52.240;20.902;2022-07-30T06:18:17;4.62;;;1.20;;
34892;SDS011;21106;52.240;20.902;2022-07-30T06:23:27;4.25;;;2.12;;
34892;SDS011;21106;52.240;20.902;2022-07-30T06:28:35;6.85;;;1.67;;
34892;SDS011;21106;52.240;20.902;2022-07-30T06:33:41;2.95;;;1.40;;
34892;SDS011;21106;52.240;20.902;2022-07-30T06:38:47;8.50;;;1.50;;
34892;SDS011;21106;52.240;20.902;2022-07-30T06:43:55;7.70;;;1.45;;
34892;SDS011;21106;52.240;20.902;2022-07-30T06:54:35;4.40;;;1.30;;
34892;SDS011;21106;52.240;20.902;2022-07-30T06:59:42;3.33;;;1.20;;
34892;SDS011;21106;52.240;20.902;2022-07-30T07:04:50;7.37;;;1.30;;
34892;SDS011;21106;52.240;20.902;2022-07-30T07:09:55;7.03;;;1.47;;
34892;SDS011;21106;52.240;20.902;2022-07-30T07:15:09;6.60;;;1.17;;
34892;SDS011;21106;52.240;20.902;2022-07-30T07:20:16;6.10;;;1.57;;
34892;SDS011;21106;52.240;20.902;2022-07-30T07:25:23;3.95;;;1.22;;
34892;SDS011;21106;52.240;20.902;2022-07-30T07:30:29;2.77;;;1.20;;
34892;SDS011;21106;52.240;20.902;2022-07-30T07:35:35;8.28;;;1.55;;
34892;SDS011;21106;52.240;20.902;2022-07-30T07:40:41;8.48;;;1.67;;
34892;SDS011;21106;52.240;20.902;2022-07-30T07:45:46;4.12;;;1.17;;
34892;SDS011;21106;52.240;20.902;2022-07-30T07:50:52;7.37;;;1.75;;
34892;SDS011;21106;52.240;20.902;2022-07-30T07:55:59;7.62;;;1.45;;
34892;SDS011;21106;52.240;20.902;2022-07-30T08:01:05;3.87;;;1.47;;
34892;SDS011;21106;52.240;20.902;2022-07-30T08:06:31;4.70;;;1.65;;
34892;SDS011;21106;52.240;20.902;2022-07-30T08:11:55;6.12;;;1.40;;
34892;SDS011;21106;52.240;20.902;2022-07-30T08:17:19;3.15;;;1.40;;
34892;SDS011;21106;52.240;20.902;2022-07-30T08:22:27;4.33;;;1.57;;
34892;SDS011;21106;52.240;20.902;2022-07-30T08:27:32;3.37;;;1.72;;
34892;SDS011;21106;52.240;20.902;2022-07-30T08:32:38;5.72;;;1.30;;
34892;SDS011;21106;52.240;20.902;2022-07-30T08:37:43;6.58;;;1.57;;
34892;SDS011;21106;52.240;20.902;2022-07-30T08:42:49;5.53;;;1.95;;
34892;SDS011;21106;52.240;20.902;2022-07-30T08:47:55;4.72;;;1.85;;
34892;SDS011;21106;52.240;20.902;2022-07-30T08:53:03;4.83;;;1.63;;
34892;SDS011;21106;52.240;20.902;2022-07-30T08:58:24;6.25;;;1.60;;
34892;SDS011;21106;52.240;20.902;2022-07-30T09:03:30;5.47;;;1.72;;
34892;SDS011;21106;52.240;20.902;2022-07-30T09:08:37;4.20;;;1.70;;
34892;SDS011;21106;52.240;20.902;2022-07-30T09:13:43;4.28;;;1.77;;
34892;SDS011;21106;52.240;20.902;2022-07-30T09:18:51;3.45;;;1.70;;
34892;SDS011;21106;52.240;20.902;2022-07-30T09:23:59;11.75;;;1.67;;
34892;SDS011;21106;52.240;20.902;2022-07-30T09:29:24;10.53;;;2.12;;
34892;SDS011;21106;52.240;20.902;2022-07-30T09:34:36;3.27;;;1.55;;
34892;SDS011;21106;52.240;20.902;2022-07-30T09:39:44;5.97;;;1.72;;
34892;SDS011;21106;52.240;20.902;2022-07-30T09:45:12;4.50;;;1.47;;
34892;SDS011;21106;52.240;20.902;2022-07-30T09:50:15;5.30;;;2.10;;
34892;SDS011;21106;52.240;20.902;2022-07-30T09:55:29;7.27;;;1.93;;
34892;SDS011;21106;52.240;20.902;2022-07-30T10:00:35;12.15;;;2.22;;
34892;SDS011;21106;52.240;20.902;2022-07-30T10:05:53;3.65;;;1.80;;
34892;SDS011;21106;52.240;20.902;2022-07-30T10:10:59;7.08;;;2.22;;
34892;SDS011;21106;52.240;20.902;2022-07-30T10:16:05;6.78;;;1.60;;
34892;SDS011;21106;52.240;20.902;2022-07-30T10:21:11;6.50;;;2.08;;
34892;SDS011;21106;52.240;20.902;2022-07-30T10:26:35;3.47;;;1.57;;
34892;SDS011;21106;52.240;20.902;2022-07-30T10:31:59;6.22;;;2.08;;
34892;SDS011;21106;52.240;20.902;2022-07-30T10:37:05;5.67;;;1.70;;
34892;SDS011;21106;52.240;20.902;2022-07-30T10:42:24;7.37;;;1.72;;
34892;SDS011;21106;52.240;20.902;2022-07-30T10:47:29;9.23;;;1.47;;
34892;SDS011;21106;52.240;20.902;2022-07-30T10:52:58;4.58;;;1.90;;
34892;SDS011;21106;52.240;20.902;2022-07-30T11:03:12;4.85;;;1.70;;
34892;SDS011;21106;52.240;20.902;2022-07-30T11:08:28;5.03;;;1.52;;
34892;SDS011;21106;52.240;20.902;2022-07-30T11:13:56;2.40;;;1.57;;
34892;SDS011;21106;52.240;20.902;2022-07-30T11:24:05;3.58;;;1.37;;
34892;SDS011;21106;52.240;20.902;2022-07-30T11:34:35;8.55;;;1.98;;
34892;SDS011;21106;52.240;20.902;2022-07-30T11:50:28;3.92;;;1.92;;
34892;SDS011;21106;52.240;20.902;2022-07-30T11:55:37;4.90;;;2.25;;
34892;SDS011;21106;52.240;20.902;2022-07-30T12:00:43;8.83;;;1.82;;
34892;SDS011;21106;52.240;20.902;2022-07-30T12:05:51;5.72;;;1.85;;
34892;SDS011;21106;52.240;20.902;2022-07-30T12:10:58;5.65;;;2.17;;
34892;SDS011;21106;52.240;20.902;2022-07-30T12:16:07;6.55;;;3.12;;
34892;SDS011;21106;52.240;20.902;2022-07-30T12:21:13;10.55;;;3.08;;
34892;SDS011;21106;52.240;20.902;2022-07-30T12:26:23;4.70;;;2.40;;
34892;SDS011;21106;52.240;20.902;2022-07-30T12:31:30;3.85;;;2.33;;
34892;SDS011;21106;52.240;20.902;2022-07-30T12:36:37;5.97;;;2.10;;
34892;SDS011;21106;52.240;20.902;2022-07-30T12:41:44;8.05;;;2.90;;
34892;SDS011;21106;52.240;20.902;2022-07-30T12:46:50;12.18;;;3.60;;
34892;SDS011;21106;52.240;20.902;2022-07-30T12:51:55;7.37;;;2.62;;
34892;SDS011;21106;52.240;20.902;2022-07-30T12:57:02;9.00;;;3.15;;
34892;SDS011;21106;52.240;20.902;2022-07-30T13:02:08;4.90;;;2.17;;
34892;SDS011;21106;52.240;20.902;2022-07-30T13:07:14;6.87;;;1.98;;
34892;SDS011;21106;52.240;20.902;2022-07-30T13:12:21;6.00;;;2.33;;
34892;SDS011;21106;52.240;20.902;2022-07-30T13:17:26;4.20;;;2.10;;
34892;SDS011;21106;52.240;20.902;2022-07-30T13:22:32;7.83;;;2.30;;
34892;SDS011;21106;52.240;20.902;2022-07-30T13:27:37;4.30;;;2.20;;
34892;SDS011;21106;52.240;20.902;2022-07-30T13:32:43;4.75;;;2.35;;
34892;SDS011;21106;52.240;20.902;2022-07-30T13:37:48;5.53;;;2.80;;
34892;SDS011;21106;52.240;20.902;2022-07-30T13:42:54;4.75;;;2.15;;
34892;SDS011;21106;52.240;20.902;2022-07-30T13:47:59;6.20;;;2.42;;
34892;SDS011;21106;52.240;20.902;2022-07-30T13:53:05;9.73;;;2.55;;
34892;SDS011;21106;52.240;20.902;2022-07-30T13:58:11;5.87;;;2.90;;
34892;SDS011;21106;52.240;20.902;2022-07-30T14:03:16;7.25;;;2.45;;
34892;SDS011;21106;52.240;20.902;2022-07-30T14:14:24;6.90;;;2.90;;
34892;SDS011;21106;52.240;20.902;2022-07-30T14:19:29;7.72;;;2.67;;
34892;SDS011;21106;52.240;20.902;2022-07-30T14:24:36;9.25;;;2.27;;
34892;SDS011;21106;52.240;20.902;2022-07-30T14:29:41;5.75;;;2.58;;
34892;SDS011;21106;52.240;20.902;2022-07-30T14:34:47;9.30;;;2.83;;
34892;SDS011;21106;52.240;20.902;2022-07-30T14:39:52;5.05;;;2.37;;
34892;SDS011;21106;52.240;20.902;2022-07-30T14:44:58;7.62;;;2.70;;
34892;SDS011;21106;52.240;20.902;2022-07-30T14:50:04;6.10;;;2.10;;
34892;SDS011;21106;52.240;20.902;2022-07-30T14:55:09;5.75;;;2.58;;
34892;SDS011;21106;52.240;20.902;2022-07-30T15:00:15;7.03;;;2.42;;
34892;SDS011;21106;52.240;20.902;2022-07-30T15:05:21;3.65;;;2.10;;
34892;SDS011;21106;52.240;20.902;2022-07-30T15:10:26;7.25;;;2.52;;
34892;SDS011;21106;52.240;20.902;2022-07-30T15:15:32;7.25;;;2.37;;
34892;SDS011;21106;52.240;20.902;2022-07-30T15:20:39;8.30;;;2.80;;
34892;SDS011;21106;52.240;20.902;2022-07-30T15:25:44;5.72;;;1.87;;
34892;SDS011;21106;52.240;20.902;2022-07-30T15:30:52;4.15;;;1.77;;
34892;SDS011;21106;52.240;20.902;2022-07-30T15:35:57;3.35;;;1.82;;
34892;SDS011;21106;52.240;20.902;2022-07-30T15:41:03;5.58;;;1.87;;
34892;SDS011;21106;52.240;20.902;2022-07-30T15:46:09;3.87;;;1.95;;
34892;SDS011;21106;52.240;20.902;2022-07-30T15:51:15;5.45;;;1.80;;
34892;SDS011;21106;52.240;20.902;2022-07-30T15:56:20;4.53;;;1.75;;
34892;SDS011;21106;52.240;20.902;2022-07-30T16:01:26;3.45;;;1.30;;
34892;SDS011;21106;52.240;20.902;2022-07-30T16:06:32;3.33;;;1.82;;
34892;SDS011;21106;52.240;20.902;2022-07-30T16:11:37;4.20;;;1.87;;
34892;SDS011;21106;52.240;20.902;2022-07-30T16:16:43;3.98;;;2.02;;
34892;SDS011;21106;52.240;20.902;2022-07-30T16:21:48;5.10;;;1.90;;
34892;SDS011;21106;52.240;20.902;2022-07-30T16:26:54;3.90;;;1.72;;
34892;SDS011;21106;52.240;20.902;2022-07-30T16:32:00;5.80;;;1.50;;
34892;SDS011;21106;52.240;20.902;2022-07-30T16:37:05;7.12;;;1.50;;
34892;SDS011;21106;52.240;20.902;2022-07-30T16:42:11;6.17;;;1.57;;
34892;SDS011;21106;52.240;20.902;2022-07-30T16:47:16;7.78;;;1.55;;
34892;SDS011;21106;52.240;20.902;2022-07-30T16:52:22;4.72;;;1.50;;
34892;SDS011;21106;52.240;20.902;2022-07-30T16:57:27;9.55;;;2.35;;
34892;SDS011;21106;52.240;20.902;2022-07-30T17:02:33;6.62;;;1.70;;
34892;SDS011;21106;52.240;20.902;2022-07-30T17:07:39;3.62;;;1.45;;
34892;SDS011;21106;52.240;20.902;2022-07-30T17:12:44;2.60;;;1.47;;
34892;SDS011;21106;52.240;20.902;2022-07-30T17:17:50;5.78;;;1.72;;
34892;SDS011;21106;52.240;20.902;2022-07-30T17:22:56;3.80;;;1.72;;
34892;SDS011;21106;52.240;20.902;2022-07-30T17:28:01;2.98;;;1.50;;
34892;SDS011;21106;52.240;20.902;2022-07-30T17:33:07;5.42;;;1.80;;
34892;SDS011;21106;52.240;20.902;2022-07-30T17:38:13;3.60;;;1.90;;
34892;SDS011;21106;52.240;20.902;2022-07-30T17:43:18;4.37;;;1.87;;
34892;SDS011;21106;52.240;20.902;2022-07-30T17:48:24;8.05;;;1.90;;
34892;SDS011;21106;52.240;20.902;2022-07-30T17:53:29;7.62;;;2.22;;
34892;SDS011;21106;52.240;20.902;2022-07-30T17:58:35;3.95;;;2.00;;
34892;SDS011;21106;52.240;20.902;2022-07-30T18:08:56;7.28;;;2.22;;
34892;SDS011;21106;52.240;20.902;2022-07-30T18:14:01;6.15;;;2.40;;
34892;SDS011;21106;52.240;20.902;2022-07-30T18:19:07;4.65;;;2.40;;
34892;SDS011;21106;52.240;20.902;2022-07-30T18:24:13;5.35;;;2.00;;
34892;SDS011;21106;52.240;20.902;2022-07-30T18:29:18;11.60;;;2.20;;
34892;SDS011;21106;52.240;20.902;2022-07-30T18:34:24;4.95;;;1.60;;
34892;SDS011;21106;52.240;20.902;2022-07-30T18:39:29;4.47;;;2.25;;
34892;SDS011;21106;52.240;20.902;2022-07-30T18:44:35;5.55;;;2.00;;
34892;SDS011;21106;52.240;20.902;2022-07-30T18:49:40;6.42;;;2.40;;
34892;SDS011;21106;52.240;20.902;2022-07-30T18:54:46;4.33;;;2.20;;
34892;SDS011;21106;52.240;20.902;2022-07-30T18:59:52;3.45;;;1.70;;
34892;SDS011;21106;52.240;20.902;2022-07-30T19:04:57;2.42;;;1.70;;
34892;SDS011;21106;52.240;20.902;2022-07-30T19:10:03;3.47;;;1.70;;
34892;SDS011;21106;52.240;20.902;2022-07-30T19:15:10;3.60;;;1.72;;
34892;SDS011;21106;52.240;20.902;2022-07-30T19:20:16;12.10;;;3.20;;
34892;SDS011;21106;52.240;20.902;2022-07-30T19:25:22;6.22;;;1.60;;
34892;SDS011;21106;52.240;20.902;2022-07-30T19:30:28;5.10;;;1.92;;
34892;SDS011;21106;52.240;20.902;2022-07-30T19:35:34;8.38;;;2.40;;
34892;SDS011;21106;52.240;20.902;2022-07-30T19:40:41;2.90;;;1.80;;
34892;SDS011;21106;52.240;20.902;2022-07-30T19:45:58;5.87;;;1.90;;
34892;SDS011;21106;52.240;20.902;2022-07-30T19:51:04;6.85;;;2.15;;
34892;SDS011;21106;52.240;20.902;2022-07-30T19:56:09;5.95;;;1.80;;
34892;SDS011;21106;52.240;20.902;2022-07-30T20:01:15;5.90;;;1.82;;
34892;SDS011;21106;52.240;20.902;2022-07-30T20:06:21;5.35;;;1.80;;
34892;SDS011;21106;52.240;20.902;2022-07-30T20:11:26;7.90;;;2.00;;
34892;SDS011;21106;52.240;20.902;2022-07-30T20:16:32;4.75;;;1.42;;
34892;SDS011;21106;52.240;20.902;2022-07-30T20:21:40;3.05;;;1.65;;
34892;SDS011;21106;52.240;20.902;2022-07-30T20:26:45;4.30;;;1.80;;
34892;SDS011;21106;52.240;20.902;2022-07-30T20:31:51;5.00;;;1.75;;
34892;SDS011;21106;52.240;20.902;2022-07-30T20:36:57;8.30;;;3.30;;
34892;SDS011;21106;52.240;20.902;2022-07-30T20:42:03;4.72;;;1.47;;
34892;SDS011;21106;52.240;20.902;2022-07-30T20:47:16;5.47;;;2.05;;
34892;SDS011;21106;52.240;20.902;2022-07-30T20:52:22;7.95;;;2.33;;
34892;SDS011;21106;52.240;20.902;2022-07-30T20:57:28;4.37;;;2.10;;
34892;SDS011;21106;52.240;20.902;2022-07-30T21:02:34;5.10;;;1.50;;
34892;SDS011;21106;52.240;20.902;2022-07-30T21:07:39;7.40;;;2.02;;
34892;SDS011;21106;52.240;20.902;2022-07-30T21:12:45;5.17;;;2.15;;
34892;SDS011;21106;52.240;20.902;2022-07-30T21:17:50;5.37;;;2.30;;
34892;SDS011;21106;52.240;20.902;2022-07-30T21:23:05;3.75;;;1.70;;
34892;SDS011;21106;52.240;20.902;2022-07-30T21:28:11;3.75;;;2.12;;
34892;SDS011;21106;52.240;20.902;2022-07-30T21:33:17;4.42;;;2.25;;
34892;SDS011;21106;52.240;20.902;2022-07-30T21:38:22;6.28;;;1.98;;
34892;SDS011;21106;52.240;20.902;2022-07-30T21:43:30;7.10;;;2.35;;
34892;SDS011;21106;52.240;20.902;2022-07-30T21:48:35;3.20;;;1.72;;
34892;SDS011;21106;52.240;20.902;2022-07-30T21:53:41;3.33;;;2.08;;
34892;SDS011;21106;52.240;20.902;2022-07-30T21:58:47;5.33;;;2.37;;
34892;SDS011;21106;52.240;20.902;2022-07-30T22:03:52;6.90;;;2.30;;
34892;SDS011;21106;52.240;20.902;2022-07-30T22:08:58;4.72;;;1.75;;
34892;SDS011;21106;52.240;20.902;2022-07-30T22:14:03;7.50;;;2.00;;
34892;SDS011;21106;52.240;20.902;2022-07-30T22:19:09;5.70;;;2.58;;
34892;SDS011;21106;52.240;20.902;2022-07-30T22:24:15;5.33;;;2.85;;
34892;SDS011;21106;52.240;20.902;2022-07-30T22:29:20;6.67;;;2.87;;
34892;SDS011;21106;52.240;20.902;2022-07-30T22:34:26;9.23;;;2.90;;
34892;SDS011;21106;52.240;20.902;2022-07-30T22:39:32;21.50;;;5.92;;
34892;SDS011;21106;52.240;20.902;2022-07-30T22:44:37;8.98;;;4.53;;
34892;SDS011;21106;52.240;20.902;2022-07-30T22:49:43;10.85;;;4.40;;
34892;SDS011;21106;52.240;20.902;2022-07-30T22:54:48;7.22;;;3.67;;
34892;SDS011;21106;52.240;20.902;2022-07-30T22:59:54;7.05;;;3.05;;
34892;SDS011;21106;52.240;20.902;2022-07-30T23:04:59;6.03;;;3.08;;
34892;SDS011;21106;52.240;20.902;2022-07-30T23:10:05;9.95;;;3.12;;
34892;SDS011;21106;52.240;20.902;2022-07-30T23:15:11;11.40;;;3.67;;
34892;SDS011;21106;52.240;20.902;2022-07-30T23:20:17;7.35;;;3.40;;
34892;SDS011;21106;52.240;20.902;2022-07-30T23:25:24;9.15;;;3.70;;
34892;SDS011;21106;52.240;20.902;2022-07-30T23:30:30;7.85;;;3.40;;
34892;SDS011;21106;52.240;20.902;2022-07-30T23:35:35;7.87;;;2.50;;
34892;SDS011;21106;52.240;20.902;2022-07-30T23:40:41;5.40;;;2.58;;
34892;SDS011;21106;52.240;20.902;2022-07-30T23:45:46;10.65;;;3.05;;
34892;SDS011;21106;52.240;20.902;2022-07-30T23:50:52;6.45;;;2.55;;
34892;SDS011;21106;52.240;20.902;2022-07-30T23:55:58;12.33;;;3.25;;
